sensor_id;sensor_type;location;lat;lon;timestamp;pressure;altitude;pressure_sealevel;temperature;humidity
8637;BME280;4356;49.068;8.658;2024-01-06T00:00:59;98752.66;;;15.57;45.86
8637;BME280;4356;49.068;8.658;2024-01-06T00:03:25;98747.50;;;15.55;45.77
8637;BME280;4356;49.068;8.658;2024-01-06T00:05:50;98744.91;;;15.49;45.95
8637;BME280;4356;49.068;8.658;2024-01-06T00:08:16;98750.19;;;15.55;45.85
8637;BME280;4356;49.068;8.658;2024-01-06T00:10:41;98735.56;;;15.44;46.25
8637;BME280;4356;49.068;8.658;2024-01-06T00:13:06;98744.91;;;15.49;46.09
8637;BME280;4356;49.068;8.658;2024-01-06T00:15:32;98758.31;;;15.55;45.78
8637;BME280;4356;49.068;8.658;2024-01-06T00:17:57;98746.75;;;15.48;46.20
8637;BME280;4356;49.068;8.658;2024-01-06T00:20:22;98726.69;;;15.37;46.21
8637;BME280;4356;49.068;8.658;2024-01-06T00:22:48;98745.13;;;15.47;46.16
8637;BME280;4356;49.068;8.658;2024-01-06T00:25:13;98751.94;;;15.50;46.37
8637;BME280;4356;49.068;8.658;2024-01-06T00:27:38;98748.41;;;15.49;46.04
8637;BME280;4356;49.068;8.658;2024-01-06T00:30:04;98745.69;;;15.49;45.85
8637;BME280;4356;49.068;8.658;2024-01-06T00:32:30;98741.59;;;15.47;46.25
8637;BME280;4356;49.068;8.658;2024-01-06T00:34:55;98741.59;;;15.47;46.32
8637;BME280;4356;49.068;8.658;2024-01-06T00:37:21;98741.34;;;15.48;46.44
8637;BME280;4356;49.068;8.658;2024-01-06T00:39:46;98742.63;;;15.45;46.51
8637;BME280;4356;49.068;8.658;2024-01-06T00:42:11;98746.16;;;15.46;46.23
8637;BME280;4356;49.068;8.658;2024-01-06T00:44:37;98754.88;;;15.48;46.41
8637;BME280;4356;49.068;8.658;2024-01-06T00:47:02;98736.69;;;15.37;46.60
8637;BME280;4356;49.068;8.658;2024-01-06T00:49:28;98753.25;;;15.47;46.26
8637;BME280;4356;49.068;8.658;2024-01-06T00:51:53;98734.22;;;15.35;46.27
8637;BME280;4356;49.068;8.658;2024-01-06T00:54:18;98753.25;;;15.47;46.14
8637;BME280;4356;49.068;8.658;2024-01-06T00:56:44;98757.00;;;15.46;46.03
8637;BME280;4356;49.068;8.658;2024-01-06T00:59:09;98750.19;;;15.43;46.49
8637;BME280;4356;49.068;8.658;2024-01-06T01:01:35;98754.28;;;15.46;46.21
8637;BME280;4356;49.068;8.658;2024-01-06T01:04:00;98760.16;;;15.43;45.95
8637;BME280;4356;49.068;8.658;2024-01-06T01:06:25;98755.63;;;15.37;46.35
8637;BME280;4356;49.068;8.658;2024-01-06T01:08:51;98759.59;;;15.34;46.24
8637;BME280;4356;49.068;8.658;2024-01-06T01:11:16;98745.72;;;15.31;46.08
8637;BME280;4356;49.068;8.658;2024-01-06T01:13:41;98771.84;;;15.43;46.56
8637;BME280;4356;49.068;8.658;2024-01-06T01:16:07;98771.00;;;15.43;46.08
8637;BME280;4356;49.068;8.658;2024-01-06T01:18:32;98771.22;;;15.41;46.10
8637;BME280;4356;49.068;8.658;2024-01-06T01:20:58;98761.75;;;15.32;46.39
8637;BME280;4356;49.068;8.658;2024-01-06T01:23:23;98775.81;;;15.41;46.48
8637;BME280;4356;49.068;8.658;2024-01-06T01:25:48;98785.63;;;15.35;46.47
8637;BME280;4356;49.068;8.658;2024-01-06T01:28:14;98779.38;;;15.35;46.21
8637;BME280;4356;49.068;8.658;2024-01-06T01:30:39;98796.63;;;15.40;46.35
8637;BME280;4356;49.068;8.658;2024-01-06T01:33:05;98777.44;;;15.24;46.28
8637;BME280;4356;49.068;8.658;2024-01-06T01:35:30;98798.47;;;15.40;46.34
8637;BME280;4356;49.068;8.658;2024-01-06T01:37:55;98782.56;;;15.32;46.19
8637;BME280;4356;49.068;8.658;2024-01-06T01:40:21;98800.63;;;15.38;46.47
8637;BME280;4356;49.068;8.658;2024-01-06T01:42:46;98802.13;;;15.34;45.98
8637;BME280;4356;49.068;8.658;2024-01-06T01:45:12;98804.00;;;15.33;46.41
8637;BME280;4356;49.068;8.658;2024-01-06T01:47:37;98800.06;;;15.29;46.40
8637;BME280;4356;49.068;8.658;2024-01-06T01:50:04;98813.31;;;15.37;46.53
8637;BME280;4356;49.068;8.658;2024-01-06T01:52:30;98816.03;;;15.37;46.24
8637;BME280;4356;49.068;8.658;2024-01-06T01:54:56;98803.38;;;15.31;46.21
8637;BME280;4356;49.068;8.658;2024-01-06T01:57:24;98818.59;;;15.32;46.48
8637;BME280;4356;49.068;8.658;2024-01-06T01:59:50;98823.53;;;15.35;46.52
8637;BME280;4356;49.068;8.658;2024-01-06T02:02:16;98836.00;;;15.36;46.16
8637;BME280;4356;49.068;8.658;2024-01-06T02:04:42;98819.84;;;15.30;46.51
8637;BME280;4356;49.068;8.658;2024-01-06T02:07:07;98809.13;;;15.23;46.57
8637;BME280;4356;49.068;8.658;2024-01-06T02:09:33;98809.13;;;15.23;46.44
8637;BME280;4356;49.068;8.658;2024-01-06T02:11:58;98817.16;;;15.30;46.46
8637;BME280;4356;49.068;8.658;2024-01-06T02:14:24;98824.28;;;15.24;46.31
8637;BME280;4356;49.068;8.658;2024-01-06T02:16:49;98836.47;;;15.33;46.42
8637;BME280;4356;49.068;8.658;2024-01-06T02:19:16;98836.94;;;15.30;46.46
8637;BME280;4356;49.068;8.658;2024-01-06T02:21:43;98842.13;;;15.32;46.23
8637;BME280;4356;49.068;8.658;2024-01-06T02:24:09;98843.75;;;15.33;46.46
8637;BME280;4356;49.068;8.658;2024-01-06T02:26:35;98839.63;;;15.30;46.06
8637;BME280;4356;49.068;8.658;2024-01-06T02:29:00;98843.63;;;15.28;46.35
8637;BME280;4356;49.068;8.658;2024-01-06T02:31:27;98842.19;;;15.25;46.09
8637;BME280;4356;49.068;8.658;2024-01-06T02:33:52;98834.75;;;15.21;46.19
8637;BME280;4356;49.068;8.658;2024-01-06T02:36:17;98858.59;;;15.30;45.82
8637;BME280;4356;49.068;8.658;2024-01-06T02:38:43;98847.59;;;15.25;46.20
8637;BME280;4356;49.068;8.658;2024-01-06T02:41:08;98853.84;;;15.26;46.07
8637;BME280;4356;49.068;8.658;2024-01-06T02:43:34;98846.84;;;15.18;46.03
8637;BME280;4356;49.068;8.658;2024-01-06T02:45:59;98859.84;;;15.28;46.02
8637;BME280;4356;49.068;8.658;2024-01-06T02:48:24;98867.13;;;15.27;46.05
8637;BME280;4356;49.068;8.658;2024-01-06T02:50:50;98842.34;;;15.12;46.13
8637;BME280;4356;49.068;8.658;2024-01-06T02:53:15;98868.44;;;15.25;46.16
8637;BME280;4356;49.068;8.658;2024-01-06T02:55:40;98869.47;;;15.24;46.11
8637;BME280;4356;49.068;8.658;2024-01-06T02:58:06;98861.56;;;15.22;46.02
8637;BME280;4356;49.068;8.658;2024-01-06T03:00:31;98873.84;;;15.25;46.20
8637;BME280;4356;49.068;8.658;2024-01-06T03:02:57;98871.38;;;15.23;46.45
8637;BME280;4356;49.068;8.658;2024-01-06T03:05:22;98865.97;;;15.23;45.84
8637;BME280;4356;49.068;8.658;2024-01-06T03:07:47;98867.81;;;15.23;45.93
8637;BME280;4356;49.068;8.658;2024-01-06T03:10:13;98865.59;;;15.20;46.15
8637;BME280;4356;49.068;8.658;2024-01-06T03:12:39;98868.06;;;15.21;46.04
8637;BME280;4356;49.068;8.658;2024-01-06T03:15:04;98865.59;;;15.20;46.06
8637;BME280;4356;49.068;8.658;2024-01-06T03:17:30;98873.47;;;15.21;46.16
8637;BME280;4356;49.068;8.658;2024-01-06T03:19:56;98875.13;;;15.22;45.81
8637;BME280;4356;49.068;8.658;2024-01-06T03:22:22;98881.59;;;15.21;45.81
8637;BME280;4356;49.068;8.658;2024-01-06T03:24:48;98880.16;;;15.19;45.75
8637;BME280;4356;49.068;8.658;2024-01-06T03:27:13;98882.84;;;15.19;45.96
8637;BME280;4356;49.068;8.658;2024-01-06T03:29:39;98879.13;;;15.20;45.84
8637;BME280;4356;49.068;8.658;2024-01-06T03:32:05;98889.09;;;15.19;46.07
8637;BME280;4356;49.068;8.658;2024-01-06T03:34:31;98882.47;;;15.15;45.84
8637;BME280;4356;49.068;8.658;2024-01-06T03:36:56;98876.84;;;15.17;45.51
8637;BME280;4356;49.068;8.658;2024-01-06T03:39:21;98889.09;;;15.19;45.90
8637;BME280;4356;49.068;8.658;2024-01-06T03:41:48;98885.56;;;15.19;45.67
8637;BME280;4356;49.068;8.658;2024-01-06T03:44:13;98883.91;;;15.18;45.44
8637;BME280;4356;49.068;8.658;2024-01-06T03:46:39;98878.28;;;15.19;45.92
8637;BME280;4356;49.068;8.658;2024-01-06T03:49:04;98875.19;;;15.16;45.81
8637;BME280;4356;49.068;8.658;2024-01-06T03:51:30;98885.78;;;15.17;45.60
8637;BME280;4356;49.068;8.658;2024-01-06T03:53:55;98875.44;;;15.14;46.10
8637;BME280;4356;49.068;8.658;2024-01-06T03:56:20;98876.84;;;15.17;45.84
8637;BME280;4356;49.068;8.658;2024-01-06T03:58:46;98874.81;;;15.12;45.98
8637;BME280;4356;49.068;8.658;2024-01-06T04:01:11;98875.63;;;15.13;46.07
8637;BME280;4356;49.068;8.658;2024-01-06T04:03:38;98885.19;;;15.15;46.21
8637;BME280;4356;49.068;8.658;2024-01-06T04:06:05;98888.97;;;15.14;46.04
8637;BME280;4356;49.068;8.658;2024-01-06T04:08:31;98875.47;;;15.08;45.80
8637;BME280;4356;49.068;8.658;2024-01-06T04:10:56;98886.31;;;15.08;45.97
8637;BME280;4356;49.068;8.658;2024-01-06T04:13:21;98895.41;;;15.13;45.96
8637;BME280;4356;49.068;8.658;2024-01-06T04:15:47;98890.00;;;15.13;46.20
8637;BME280;4356;49.068;8.658;2024-01-06T04:18:12;98869.53;;;14.99;46.45
8637;BME280;4356;49.068;8.658;2024-01-06T04:20:38;98885.47;;;15.07;46.29
8637;BME280;4356;49.068;8.658;2024-01-06T04:23:03;98875.78;;;15.00;46.22
8637;BME280;4356;49.068;8.658;2024-01-06T04:25:28;98874.94;;;14.99;46.39
8637;BME280;4356;49.068;8.658;2024-01-06T04:27:54;98894.00;;;15.11;46.22
8637;BME280;4356;49.068;8.658;2024-01-06T04:30:19;98882.56;;;15.09;46.24
8637;BME280;4356;49.068;8.658;2024-01-06T04:32:45;98874.66;;;15.07;46.52
8637;BME280;4356;49.068;8.658;2024-01-06T04:35:13;98878.03;;;15.03;46.24
8637;BME280;4356;49.068;8.658;2024-01-06T04:37:39;98873.22;;;15.05;46.24
8637;BME280;4356;49.068;8.658;2024-01-06T04:40:04;98882.56;;;15.09;46.17
8637;BME280;4356;49.068;8.658;2024-01-06T04:42:30;98869.69;;;15.04;46.50
8637;BME280;4356;49.068;8.658;2024-01-06T04:44:56;98873.84;;;15.07;45.86
8637;BME280;4356;49.068;8.658;2024-01-06T04:47:21;98865.16;;;14.98;46.16
8637;BME280;4356;49.068;8.658;2024-01-06T04:49:47;98880.88;;;15.08;46.14
8637;BME280;4356;49.068;8.658;2024-01-06T04:52:12;98888.16;;;15.07;46.09
8637;BME280;4356;49.068;8.658;2024-01-06T04:54:38;98878.03;;;15.03;46.55
8637;BME280;4356;49.068;8.658;2024-01-06T04:57:03;98883.44;;;15.03;46.20
8637;BME280;4356;49.068;8.658;2024-01-06T04:59:29;98891.72;;;15.08;46.10
8637;BME280;4356;49.068;8.658;2024-01-06T05:01:57;98900.91;;;15.07;46.26
8637;BME280;4356;49.068;8.658;2024-01-06T05:04:22;98890.06;;;15.07;46.11
8637;BME280;4356;49.068;8.658;2024-01-06T05:06:48;98890.31;;;15.05;46.15
8637;BME280;4356;49.068;8.658;2024-01-06T05:09:14;98873.09;;;15.00;46.31
8637;BME280;4356;49.068;8.658;2024-01-06T05:11:40;98859.38;;;14.95;46.40
8637;BME280;4356;49.068;8.658;2024-01-06T05:14:05;98871.63;;;14.97;46.36
8637;BME280;4356;49.068;8.658;2024-01-06T05:16:31;98866.91;;;14.93;46.32
8637;BME280;4356;49.068;8.658;2024-01-06T05:18:56;98883.69;;;15.01;46.09
8637;BME280;4356;49.068;8.658;2024-01-06T05:21:21;98881.19;;;15.00;46.67
8637;BME280;4356;49.068;8.658;2024-01-06T05:23:47;98892.03;;;15.00;46.37
8637;BME280;4356;49.068;8.658;2024-01-06T05:26:12;98888.25;;;15.01;46.39
8637;BME280;4356;49.068;8.658;2024-01-06T05:28:39;98882.22;;;14.99;46.40
8637;BME280;4356;49.068;8.658;2024-01-06T05:31:04;98884.50;;;15.02;46.37
8637;BME280;4356;49.068;8.658;2024-01-06T05:33:30;98865.25;;;14.92;46.91
8637;BME280;4356;49.068;8.658;2024-01-06T05:35:55;98886.59;;;15.00;46.62
8637;BME280;4356;49.068;8.658;2024-01-06T05:38:21;98888.72;;;14.98;46.85
8637;BME280;4356;49.068;8.658;2024-01-06T05:40:46;98883.72;;;14.95;46.86
8637;BME280;4356;49.068;8.658;2024-01-06T05:43:12;98894.13;;;14.98;46.39
8637;BME280;4356;49.068;8.658;2024-01-06T05:45:37;98883.56;;;14.90;46.61
8637;BME280;4356;49.068;8.658;2024-01-06T05:48:04;98895.59;;;14.94;46.64
8637;BME280;4356;49.068;8.658;2024-01-06T05:50:30;98883.56;;;14.90;46.64
8637;BME280;4356;49.068;8.658;2024-01-06T05:52:55;98896.66;;;14.93;46.76
8637;BME280;4356;49.068;8.658;2024-01-06T05:55:21;98900.56;;;14.97;46.73
8637;BME280;4356;49.068;8.658;2024-01-06T05:57:46;98898.53;;;14.92;46.55
8637;BME280;4356;49.068;8.658;2024-01-06T06:00:12;98902.88;;;14.93;47.06
8637;BME280;4356;49.068;8.658;2024-01-06T06:02:38;98900.63;;;14.90;46.65
8637;BME280;4356;49.068;8.658;2024-01-06T06:05:05;98907.25;;;14.94;46.36
8637;BME280;4356;49.068;8.658;2024-01-06T06:07:30;98917.25;;;14.94;46.33
8637;BME280;4356;49.068;8.658;2024-01-06T06:09:55;98924.31;;;14.95;46.76
8637;BME280;4356;49.068;8.658;2024-01-06T06:12:21;98916.63;;;14.92;46.59
8637;BME280;4356;49.068;8.658;2024-01-06T06:14:46;98916.03;;;14.90;46.26
8637;BME280;4356;49.068;8.658;2024-01-06T06:17:11;98927.47;;;14.92;46.83
8637;BME280;4356;49.068;8.658;2024-01-06T06:19:37;98933.47;;;14.94;46.49
8637;BME280;4356;49.068;8.658;2024-01-06T06:22:03;98936.19;;;14.94;46.89
8637;BME280;4356;49.068;8.658;2024-01-06T06:24:28;98941.00;;;14.92;46.21
8637;BME280;4356;49.068;8.658;2024-01-06T06:26:54;98943.47;;;14.93;46.47
8637;BME280;4356;49.068;8.658;2024-01-06T06:29:19;98936.03;;;14.89;46.86
8637;BME280;4356;49.068;8.658;2024-01-06T06:31:46;98951.19;;;14.90;46.81
8637;BME280;4356;49.068;8.658;2024-01-06T06:34:12;98948.50;;;14.90;46.90
8637;BME280;4356;49.068;8.658;2024-01-06T06:36:37;98950.81;;;14.86;46.91
8637;BME280;4356;49.068;8.658;2024-01-06T06:39:03;98930.13;;;14.74;46.70
8637;BME280;4356;49.068;8.658;2024-01-06T06:41:29;98962.63;;;14.92;46.91
8637;BME280;4356;49.068;8.658;2024-01-06T06:43:55;98941.78;;;14.74;46.57
8637;BME280;4356;49.068;8.658;2024-01-06T06:46:20;98963.31;;;14.87;46.65
8637;BME280;4356;49.068;8.658;2024-01-06T06:48:46;98974.72;;;14.89;46.69
8637;BME280;4356;49.068;8.658;2024-01-06T06:51:11;98950.50;;;14.76;46.67
8637;BME280;4356;49.068;8.658;2024-01-06T06:53:36;98959.00;;;14.80;46.88
8637;BME280;4356;49.068;8.658;2024-01-06T06:56:02;98967.34;;;14.78;46.75
8637;BME280;4356;49.068;8.658;2024-01-06T06:58:27;98979.31;;;14.89;46.40
8637;BME280;4356;49.068;8.658;2024-01-06T07:00:53;98964.63;;;14.78;46.52
8637;BME280;4356;49.068;8.658;2024-01-06T07:03:19;98982.66;;;14.84;46.53
8637;BME280;4356;49.068;8.658;2024-01-06T07:05:45;98990.75;;;14.91;46.42
8637;BME280;4356;49.068;8.658;2024-01-06T07:08:10;98991.78;;;14.90;46.92
8637;BME280;4356;49.068;8.658;2024-01-06T07:10:36;99001.75;;;14.89;46.79
8637;BME280;4356;49.068;8.658;2024-01-06T07:13:01;99001.97;;;14.88;46.62
8637;BME280;4356;49.068;8.658;2024-01-06T07:15:26;99007.38;;;14.88;46.51
8637;BME280;4356;49.068;8.658;2024-01-06T07:17:52;99006.78;;;14.86;46.64
8637;BME280;4356;49.068;8.658;2024-01-06T07:20:17;98992.69;;;14.77;46.72
8637;BME280;4356;49.068;8.658;2024-01-06T07:22:43;99009.94;;;14.83;46.54
8637;BME280;4356;49.068;8.658;2024-01-06T07:25:09;99007.91;;;14.78;47.01
8637;BME280;4356;49.068;8.658;2024-01-06T07:27:34;99004.19;;;14.73;46.61
8637;BME280;4356;49.068;8.658;2024-01-06T07:29:59;99001.88;;;14.76;46.80
8637;BME280;4356;49.068;8.658;2024-01-06T07:32:25;99025.13;;;14.84;46.75
8637;BME280;4356;49.068;8.658;2024-01-06T07:34:50;99028.41;;;14.86;46.92
8637;BME280;4356;49.068;8.658;2024-01-06T07:37:16;99014.50;;;14.82;46.38
8637;BME280;4356;49.068;8.658;2024-01-06T07:39:41;99006.28;;;14.71;46.47
8637;BME280;4356;49.068;8.658;2024-01-06T07:42:07;99025.13;;;14.84;46.63
8637;BME280;4356;49.068;8.658;2024-01-06T07:44:33;99027.00;;;14.83;46.62
8637;BME280;4356;49.068;8.658;2024-01-06T07:46:58;99025.13;;;14.84;46.30
8637;BME280;4356;49.068;8.658;2024-01-06T07:49:24;99022.06;;;14.74;46.89
8637;BME280;4356;49.068;8.658;2024-01-06T07:51:49;99032.63;;;14.82;46.73
8637;BME280;4356;49.068;8.658;2024-01-06T07:54:14;99034.09;;;14.78;46.80
8637;BME280;4356;49.068;8.658;2024-01-06T07:56:42;99029.72;;;14.77;47.01
8637;BME280;4356;49.068;8.658;2024-01-06T07:59:09;99039.53;;;14.78;46.77
8637;BME280;4356;49.068;8.658;2024-01-06T08:01:35;99018.13;;;14.70;46.70
8637;BME280;4356;49.068;8.658;2024-01-06T08:04:00;99035.53;;;14.80;46.84
8637;BME280;4356;49.068;8.658;2024-01-06T08:06:25;99022.31;;;14.66;46.92
8637;BME280;4356;49.068;8.658;2024-01-06T08:08:51;99036.66;;;14.73;46.62
8637;BME280;4356;49.068;8.658;2024-01-06T08:11:16;99032.25;;;14.72;46.53
8637;BME280;4356;49.068;8.658;2024-01-06T08:13:42;99037.22;;;14.75;47.01
8637;BME280;4356;49.068;8.658;2024-01-06T08:16:07;99045.53;;;14.80;46.73
8637;BME280;4356;49.068;8.658;2024-01-06T08:18:32;99045.34;;;14.75;46.45
8637;BME280;4356;49.068;8.658;2024-01-06T08:20:58;99050.75;;;14.75;46.88
8637;BME280;4356;49.068;8.658;2024-01-06T08:23:23;99061.31;;;14.83;46.70
8637;BME280;4356;49.068;8.658;2024-01-06T08:25:49;99056.75;;;14.83;46.71
8637;BME280;4356;49.068;8.658;2024-01-06T08:28:14;99062.38;;;14.82;46.71
8637;BME280;4356;49.068;8.658;2024-01-06T08:30:40;99070.28;;;14.83;46.96
8637;BME280;4356;49.068;8.658;2024-01-06T08:33:06;99062.78;;;14.79;46.75
8637;BME280;4356;49.068;8.658;2024-01-06T08:35:31;99055.75;;;14.78;46.62
8637;BME280;4356;49.068;8.658;2024-01-06T08:37:56;99055.13;;;14.76;46.77
8637;BME280;4356;49.068;8.658;2024-01-06T08:40:22;99076.53;;;14.84;47.03
8637;BME280;4356;49.068;8.658;2024-01-06T08:42:47;99067.81;;;14.75;46.73
8637;BME280;4356;49.068;8.658;2024-01-06T08:45:13;99087.34;;;14.84;46.62
8637;BME280;4356;49.068;8.658;2024-01-06T08:47:39;99081.94;;;14.84;46.90
8637;BME280;4356;49.068;8.658;2024-01-06T08:50:05;99061.78;;;14.73;46.81
8637;BME280;4356;49.068;8.658;2024-01-06T08:52:31;99086.28;;;14.85;46.72
8637;BME280;4356;49.068;8.658;2024-01-06T08:54:56;99088.38;;;14.83;46.54
8637;BME280;4356;49.068;8.658;2024-01-06T08:57:21;99097.09;;;14.85;46.98
8637;BME280;4356;49.068;8.658;2024-01-06T08:59:47;99094.84;;;14.82;46.45
8637;BME280;4356;49.068;8.658;2024-01-06T09:02:12;99097.09;;;14.85;46.93
8637;BME280;4356;49.068;8.658;2024-01-06T09:04:38;99099.59;;;14.86;46.51
8637;BME280;4356;49.068;8.658;2024-01-06T09:07:03;99095.47;;;14.84;46.79
8637;BME280;4356;49.068;8.658;2024-01-06T09:09:28;99090.63;;;14.86;46.54
8637;BME280;4356;49.068;8.658;2024-01-06T09:11:55;99089.81;;;14.85;46.60
8637;BME280;4356;49.068;8.658;2024-01-06T09:14:20;99093.34;;;14.86;46.46
8637;BME280;4356;49.068;8.658;2024-01-06T09:16:45;99069.69;;;14.75;46.96
8637;BME280;4356;49.068;8.658;2024-01-06T09:19:11;99087.53;;;14.82;47.13
8637;BME280;4356;49.068;8.658;2024-01-06T09:21:36;99092.31;;;14.80;47.08
8637;BME280;4356;49.068;8.658;2024-01-06T09:24:02;99106.06;;;14.85;46.52
8637;BME280;4356;49.068;8.658;2024-01-06T09:26:34;99120.38;;;14.86;46.93
8637;BME280;4356;49.068;8.658;2024-01-06T09:29:00;99117.91;;;14.84;46.52
8637;BME280;4356;49.068;8.658;2024-01-06T09:31:25;99115.19;;;14.84;46.67
8637;BME280;4356;49.068;8.658;2024-01-06T09:33:51;99083.69;;;14.65;46.79
8637;BME280;4356;49.068;8.658;2024-01-06T09:36:16;99086.97;;;14.74;46.92
8637;BME280;4356;49.068;8.658;2024-01-06T09:38:43;99117.09;;;14.84;46.86
8637;BME280;4356;49.068;8.658;2024-01-06T09:41:08;99109.00;;;14.77;46.49
8637;BME280;4356;49.068;8.658;2024-01-06T09:43:34;99118.75;;;14.85;46.69
8637;BME280;4356;49.068;8.658;2024-01-06T09:46:10;99121.06;;;14.81;47.10
8637;BME280;4356;49.068;8.658;2024-01-06T09:48:40;99125.78;;;14.86;47.06
8637;BME280;4356;49.068;8.658;2024-01-06T09:51:10;99120.00;;;14.82;46.92
8637;BME280;4356;49.068;8.658;2024-01-06T09:53:43;99129.56;;;14.85;46.51
8637;BME280;4356;49.068;8.658;2024-01-06T09:56:08;99141.22;;;14.85;46.72
8637;BME280;4356;49.068;8.658;2024-01-06T09:58:35;99129.16;;;14.81;46.90
8637;BME280;4356;49.068;8.658;2024-01-06T10:01:03;99134.97;;;14.85;46.74
8637;BME280;4356;49.068;8.658;2024-01-06T10:03:29;99138.50;;;14.85;46.69
8637;BME280;4356;49.068;8.658;2024-01-06T10:05:54;99134.34;;;14.83;46.56
8637;BME280;4356;49.068;8.658;2024-01-06T10:08:25;99134.97;;;14.85;46.89
8637;BME280;4356;49.068;8.658;2024-01-06T10:10:51;99118.81;;;14.72;46.84
8637;BME280;4356;49.068;8.658;2024-01-06T10:13:17;99139.53;;;14.84;46.58
8637;BME280;4356;49.068;8.658;2024-01-06T10:15:43;99133.50;;;14.82;46.68
8637;BME280;4356;49.068;8.658;2024-01-06T10:18:08;99147.44;;;14.86;46.72
8637;BME280;4356;49.068;8.658;2024-01-06T10:20:34;99132.47;;;14.83;46.75
8637;BME280;4356;49.068;8.658;2024-01-06T10:23:04;99106.13;;;14.66;47.02
8637;BME280;4356;49.068;8.658;2024-01-06T10:25:30;99133.09;;;14.85;46.50
8637;BME280;4356;49.068;8.658;2024-01-06T10:27:56;99130.81;;;14.82;46.78
8637;BME280;4356;49.068;8.658;2024-01-06T10:30:21;99134.13;;;14.84;47.00
8637;BME280;4356;49.068;8.658;2024-01-06T10:32:46;99137.69;;;14.85;46.75
8637;BME280;4356;49.068;8.658;2024-01-06T10:35:12;99132.47;;;14.83;47.01
8637;BME280;4356;49.068;8.658;2024-01-06T10:37:37;99131.19;;;14.86;46.83
8637;BME280;4356;49.068;8.658;2024-01-06T10:40:06;99141.00;;;14.87;46.98
8637;BME280;4356;49.068;8.658;2024-01-06T10:42:32;99132.91;;;14.80;47.05
8637;BME280;4356;49.068;8.658;2024-01-06T10:44:58;99135.59;;;14.87;47.14
8637;BME280;4356;49.068;8.658;2024-01-06T10:47:25;99131.19;;;14.86;46.84
8637;BME280;4356;49.068;8.658;2024-01-06T10:49:52;99140.16;;;14.86;46.95
8637;BME280;4356;49.068;8.658;2024-01-06T10:52:20;99118.34;;;14.81;47.17
8637;BME280;4356;49.068;8.658;2024-01-06T10:54:46;99130.81;;;14.82;47.11
8637;BME280;4356;49.068;8.658;2024-01-06T10:57:15;99120.25;;;14.74;46.71
8637;BME280;4356;49.068;8.658;2024-01-06T10:59:41;99122.91;;;14.81;47.19
8637;BME280;4356;49.068;8.658;2024-01-06T11:02:07;99133.09;;;14.85;46.95
8637;BME280;4356;49.068;8.658;2024-01-06T11:04:33;99140.16;;;14.86;47.04
8637;BME280;4356;49.068;8.658;2024-01-06T11:06:58;99122.53;;;14.77;47.00
8637;BME280;4356;49.068;8.658;2024-01-06T11:09:27;99141.38;;;14.90;46.93
8637;BME280;4356;49.068;8.658;2024-01-06T11:11:56;99144.09;;;14.90;46.86
8637;BME280;4356;49.068;8.658;2024-01-06T11:14:26;99136.81;;;14.91;46.85
8637;BME280;4356;49.068;8.658;2024-01-06T11:16:54;99129.50;;;14.91;46.71
8637;BME280;4356;49.068;8.658;2024-01-06T11:22:33;99100.88;;;14.77;47.16
8637;BME280;4356;49.068;8.658;2024-01-06T11:25:06;99122.06;;;14.87;46.97
8637;BME280;4356;49.068;8.658;2024-01-06T11:27:35;99121.22;;;14.86;46.96
8637;BME280;4356;49.068;8.658;2024-01-06T11:30:03;99114.19;;;14.79;47.07
8637;BME280;4356;49.068;8.658;2024-01-06T11:32:33;99125.16;;;14.90;46.81
8637;BME280;4356;49.068;8.658;2024-01-06T11:35:09;99118.91;;;14.90;47.31
8637;BME280;4356;49.068;8.658;2024-01-06T11:40:26;99119.75;;;14.90;47.21
8637;BME280;4356;49.068;8.658;2024-01-06T11:43:10;99129.31;;;14.93;47.13
8637;BME280;4356;49.068;8.658;2024-01-06T11:45:37;99116.19;;;14.90;46.93
8637;BME280;4356;49.068;8.658;2024-01-06T11:48:05;99122.00;;;14.93;46.96
8637;BME280;4356;49.068;8.658;2024-01-06T11:50:32;99122.22;;;14.92;46.40
8637;BME280;4356;49.068;8.658;2024-01-06T11:52:58;99104.38;;;14.84;46.99
8637;BME280;4356;49.068;8.658;2024-01-06T11:55:25;99118.28;;;14.94;46.74
8637;BME280;4356;49.068;8.658;2024-01-06T11:57:54;99101.91;;;14.83;46.59
8637;BME280;4356;49.068;8.658;2024-01-06T12:00:19;99095.25;;;14.79;46.94
8637;BME280;4356;49.068;8.658;2024-01-06T12:02:45;99106.84;;;14.86;46.75
8637;BME280;4356;49.068;8.658;2024-01-06T12:05:18;99110.78;;;14.90;46.73
8637;BME280;4356;49.068;8.658;2024-01-06T12:07:54;99118.28;;;14.94;46.73
8637;BME280;4356;49.068;8.658;2024-01-06T12:10:21;99119.47;;;14.98;46.78
8637;BME280;4356;49.068;8.658;2024-01-06T12:12:58;99106.16;;;14.97;46.65
8637;BME280;4356;49.068;8.658;2024-01-06T12:15:24;99102.66;;;14.96;46.84
8637;BME280;4356;49.068;8.658;2024-01-06T12:17:49;99110.78;;;14.96;46.51
8637;BME280;4356;49.068;8.658;2024-01-06T12:20:15;99106.78;;;14.99;46.71
8637;BME280;4356;49.068;8.658;2024-01-06T12:22:40;99106.16;;;14.97;46.57
8637;BME280;4356;49.068;8.658;2024-01-06T12:25:06;99095.34;;;14.97;46.47
8637;BME280;4356;49.068;8.658;2024-01-06T12:27:32;99102.44;;;14.98;46.68
8637;BME280;4356;49.068;8.658;2024-01-06T12:29:58;99086.22;;;14.91;46.63
8637;BME280;4356;49.068;8.658;2024-01-06T12:32:23;99099.72;;;14.98;46.78
8637;BME280;4356;49.068;8.658;2024-01-06T12:34:50;99102.66;;;14.96;46.17
8637;BME280;4356;49.068;8.658;2024-01-06T12:37:16;99080.19;;;14.89;46.68
8637;BME280;4356;49.068;8.658;2024-01-06T12:39:47;99079.41;;;14.89;46.38
8637;BME280;4356;49.068;8.658;2024-01-06T12:42:15;99103.03;;;15.00;46.18
8637;BME280;4356;49.068;8.658;2024-01-06T12:44:41;99107.41;;;15.01;46.02
8637;BME280;4356;49.068;8.658;2024-01-06T12:47:07;99102.22;;;14.99;46.28
8637;BME280;4356;49.068;8.658;2024-01-06T12:49:33;99107.41;;;15.01;46.17
8637;BME280;4356;49.068;8.658;2024-01-06T12:51:58;99104.91;;;14.99;46.00
8637;BME280;4356;49.068;8.658;2024-01-06T12:54:24;99109.06;;;15.02;46.28
8637;BME280;4356;49.068;8.658;2024-01-06T12:56:49;99104.91;;;14.99;46.14
8637;BME280;4356;49.068;8.658;2024-01-06T12:59:15;99114.69;;;15.00;45.88
8637;BME280;4356;49.068;8.658;2024-01-06T13:01:40;99102.81;;;15.01;45.99
8637;BME280;4356;49.068;8.658;2024-01-06T13:04:05;99101.97;;;15.01;45.77
8637;BME280;4356;49.068;8.658;2024-01-06T13:06:31;99105.31;;;15.03;46.12
8637;BME280;4356;49.068;8.658;2024-01-06T13:08:56;99094.97;;;14.93;45.94
8637;BME280;4356;49.068;8.658;2024-01-06T13:11:22;99081.88;;;14.90;46.20
8637;BME280;4356;49.068;8.658;2024-01-06T13:13:47;99104.25;;;15.04;46.05
8637;BME280;4356;49.068;8.658;2024-01-06T13:16:13;99093.09;;;14.94;46.05
8637;BME280;4356;49.068;8.658;2024-01-06T13:18:38;99073.81;;;14.84;45.55
8637;BME280;4356;49.068;8.658;2024-01-06T13:21:04;99085.41;;;14.91;46.21